sensor_id;sensor_type;location;lat;lon;timestamp;pressure;altitude;pressure_sealevel;temperature;humidity
59419;BME280;45224;50.904;6.038;2023-04-30T00:00:59;100439.06;;;10.10;84.94
59419;BME280;45224;50.904;6.038;2023-04-30T00:02:29;100436.38;;;10.02;84.91
59419;BME280;45224;50.904;6.038;2023-04-30T00:04:00;100443.31;;;10.05;84.79
59419;BME280;45224;50.904;6.038;2023-04-30T00:05:30;100447.63;;;10.04;84.76
59419;BME280;45224;50.904;6.038;2023-04-30T00:07:01;100439.88;;;10.06;84.78
59419;BME280;45224;50.904;6.038;2023-04-30T00:08:31;100445.03;;;10.04;84.89
59419;BME280;45224;50.904;6.038;2023-04-30T00:10:02;100447.63;;;10.04;84.82
59419;BME280;45224;50.904;6.038;2023-04-30T00:11:34;100445.03;;;10.04;84.68
59419;BME280;45224;50.904;6.038;2023-04-30T00:13:04;100444.94;;;9.98;85.23
59419;BME280;45224;50.904;6.038;2023-04-30T00:14:35;100445.81;;;10.00;84.92
59419;BME280;45224;50.904;6.038;2023-04-30T00:16:06;100442.41;;;10.01;84.94
59419;BME280;45224;50.904;6.038;2023-04-30T00:17:36;100439.78;;;9.98;85.05
59419;BME280;45224;50.904;6.038;2023-04-30T00:19:07;100442.38;;;10.00;84.80
59419;BME280;45224;50.904;6.038;2023-04-30T00:20:37;100442.34;;;9.97;85.21
59419;BME280;45224;50.904;6.038;2023-04-30T00:22:08;100441.44;;;9.96;85.28
59419;BME280;45224;50.904;6.038;2023-04-30T00:23:38;100444.91;;;9.95;85.49
59419;BME280;45224;50.904;6.038;2023-04-30T00:25:09;100443.03;;;9.85;86.69
59419;BME280;45224;50.904;6.038;2023-04-30T00:26:39;100437.88;;;9.86;86.78
59419;BME280;45224;50.904;6.038;2023-04-30T00:28:10;100441.34;;;9.87;85.84
59419;BME280;45224;50.904;6.038;2023-04-30T00:29:40;100443.81;;;9.79;86.92
59419;BME280;45224;50.904;6.038;2023-04-30T00:31:11;100443.72;;;9.72;87.51
59419;BME280;45224;50.904;6.038;2023-04-30T00:32:41;100447.16;;;9.71;88.34
59419;BME280;45224;50.904;6.038;2023-04-30T00:34:12;100441.00;;;9.62;88.66
59419;BME280;45224;50.904;6.038;2023-04-30T00:35:42;100440.22;;;9.68;87.96
59419;BME280;45224;50.904;6.038;2023-04-30T00:37:13;100439.41;;;9.69;87.60
59419;BME280;45224;50.904;6.038;2023-04-30T00:38:43;100442.88;;;9.73;87.37
59419;BME280;45224;50.904;6.038;2023-04-30T00:40:14;100450.59;;;9.71;87.08
59419;BME280;45224;50.904;6.038;2023-04-30T00:41:44;100442.84;;;9.69;87.18
59419;BME280;45224;50.904;6.038;2023-04-30T00:43:15;100447.13;;;9.69;87.59
59419;BME280;45224;50.904;6.038;2023-04-30T00:44:45;100451.47;;;9.72;86.85
59419;BME280;45224;50.904;6.038;2023-04-30T00:46:16;100452.34;;;9.72;86.98
59419;BME280;45224;50.904;6.038;2023-04-30T00:47:47;100451.47;;;9.72;86.77
59419;BME280;45224;50.904;6.038;2023-04-30T00:49:17;100449.78;;;9.72;86.52
59419;BME280;45224;50.904;6.038;2023-04-30T00:50:49;100444.59;;;9.71;86.90
59419;BME280;45224;50.904;6.038;2023-04-30T00:52:20;100442.84;;;9.69;86.79
59419;BME280;45224;50.904;6.038;2023-04-30T00:53:50;100445.31;;;9.63;87.07
59419;BME280;45224;50.904;6.038;2023-04-30T00:55:21;100455.66;;;9.63;87.43
59419;BME280;45224;50.904;6.038;2023-04-30T00:56:52;100452.97;;;9.57;87.96
59419;BME280;45224;50.904;6.038;2023-04-30T00:58:22;100440.69;;;9.41;89.54
59419;BME280;45224;50.904;6.038;2023-04-30T00:59:53;100444.25;;;9.49;88.67
59419;BME280;45224;50.904;6.038;2023-04-30T01:01:24;100444.13;;;9.38;89.96
59419;BME280;45224;50.904;6.038;2023-04-30T01:02:55;100452.28;;;9.11;92.27
59419;BME280;45224;50.904;6.038;2023-04-30T01:04:27;100450.91;;;8.81;94.11
59419;BME280;45224;50.904;6.038;2023-04-30T01:05:58;100447.50;;;8.84;94.37
59419;BME280;45224;50.904;6.038;2023-04-30T01:07:29;100439.69;;;8.79;95.39
59419;BME280;45224;50.904;6.038;2023-04-30T01:09:00;100451.75;;;8.80;95.12
59419;BME280;45224;50.904;6.038;2023-04-30T01:10:37;100439.47;;;8.67;95.73
59419;BME280;45224;50.904;6.038;2023-04-30T01:12:16;100446.06;;;8.52;97.77
59419;BME280;45224;50.904;6.038;2023-04-30T01:14:10;100443.38;;;8.45;98.26
59419;BME280;45224;50.904;6.038;2023-04-30T01:15:59;100438.22;;;8.45;97.98
59419;BME280;45224;50.904;6.038;2023-04-30T01:21:04;100440.66;;;8.40;98.55
59419;BME280;45224;50.904;6.038;2023-04-30T01:29:33;100428.09;;;8.11;100.00
59419;BME280;45224;50.904;6.038;2023-04-30T01:31:17;100429.03;;;8.16;99.99
59419;BME280;45224;50.904;6.038;2023-04-30T01:32:48;100419.41;;;8.06;100.00
59419;BME280;45224;50.904;6.038;2023-04-30T01:34:19;100430.03;;;8.23;99.50
59419;BME280;45224;50.904;6.038;2023-04-30T01:38:01;100433.50;;;8.23;99.25
59419;BME280;45224;50.904;6.038;2023-04-30T01:39:44;100430.25;;;8.34;98.02
59419;BME280;45224;50.904;6.038;2023-04-30T01:46:28;100439.63;;;8.30;98.02
59419;BME280;45224;50.904;6.038;2023-04-30T01:48:21;100435.44;;;8.37;97.76
59419;BME280;45224;50.904;6.038;2023-04-30T01:50:14;100431.22;;;8.40;97.42
59419;BME280;45224;50.904;6.038;2023-04-30T01:51:47;100430.91;;;8.25;98.93
59419;BME280;45224;50.904;6.038;2023-04-30T01:53:26;100438.97;;;8.42;97.30
59419;BME280;45224;50.904;6.038;2023-04-30T01:55:10;100426.31;;;8.51;96.14
59419;BME280;45224;50.904;6.038;2023-04-30T01:56:50;100432.22;;;8.47;95.98
59419;BME280;45224;50.904;6.038;2023-04-30T01:58:23;100433.75;;;8.37;97.26
59419;BME280;45224;50.904;6.038;2023-04-30T01:59:54;100433.09;;;8.46;96.60
59419;BME280;45224;50.904;6.038;2023-04-30T02:01:27;100433.16;;;8.51;95.77
59419;BME280;45224;50.904;6.038;2023-04-30T02:02:58;100439.25;;;8.54;95.57
59419;BME280;45224;50.904;6.038;2023-04-30T02:04:29;100431.44;;;8.50;95.35
59419;BME280;45224;50.904;6.038;2023-04-30T02:05:59;100432.00;;;8.35;96.88
59419;BME280;45224;50.904;6.038;2023-04-30T02:07:42;100436.00;;;8.20;97.05
59419;BME280;45224;50.904;6.038;2023-04-30T02:09:13;100447.16;;;8.21;98.00
59419;BME280;45224;50.904;6.038;2023-04-30T02:10:43;100443.59;;;8.14;98.08
59419;BME280;45224;50.904;6.038;2023-04-30T02:12:14;100452.72;;;7.98;98.81
59419;BME280;45224;50.904;6.038;2023-04-30T02:13:45;100444.88;;;7.94;99.35
59419;BME280;45224;50.904;6.038;2023-04-30T02:15:15;100456.94;;;7.95;99.36
59419;BME280;45224;50.904;6.038;2023-04-30T02:16:46;100457.56;;;7.84;100.00
59419;BME280;45224;50.904;6.038;2023-04-30T02:18:16;100453.03;;;7.74;100.00
59419;BME280;45224;50.904;6.038;2023-04-30T02:19:47;100459.81;;;7.69;100.00
59419;BME280;45224;50.904;6.038;2023-04-30T02:21:17;100448.47;;;7.61;100.00
59419;BME280;45224;50.904;6.038;2023-04-30T02:22:48;100448.69;;;7.72;100.00
59419;BME280;45224;50.904;6.038;2023-04-30T02:24:18;100453.28;;;7.85;99.73
59419;BME280;45224;50.904;6.038;2023-04-30T02:25:49;100448.28;;;7.93;98.60
59419;BME280;45224;50.904;6.038;2023-04-30T02:27:20;100448.41;;;7.99;97.76
59419;BME280;45224;50.904;6.038;2023-04-30T02:28:51;100452.81;;;8.03;97.30
59419;BME280;45224;50.904;6.038;2023-04-30T02:30:21;100452.97;;;8.11;96.61
59419;BME280;45224;50.904;6.038;2023-04-30T02:31:52;100445.28;;;8.12;96.02
59419;BME280;45224;50.904;6.038;2023-04-30T02:33:22;100446.28;;;8.19;95.32
59419;BME280;45224;50.904;6.038;2023-04-30T02:34:53;100440.28;;;8.21;95.21
59419;BME280;45224;50.904;6.038;2023-04-30T02:36:23;100436.91;;;8.24;94.41
59419;BME280;45224;50.904;6.038;2023-04-30T02:37:54;100443.78;;;8.23;94.07
59419;BME280;45224;50.904;6.038;2023-04-30T02:39:24;100442.09;;;8.26;93.94
59419;BME280;45224;50.904;6.038;2023-04-30T02:40:55;100451.53;;;8.25;93.61
59419;BME280;45224;50.904;6.038;2023-04-30T02:42:25;100452.47;;;8.29;93.52
59419;BME280;45224;50.904;6.038;2023-04-30T02:43:56;100449.88;;;8.27;93.09
59419;BME280;45224;50.904;6.038;2023-04-30T02:45:26;100440.28;;;8.21;93.45
59419;BME280;45224;50.904;6.038;2023-04-30T02:46:57;100450.63;;;8.23;93.60
59419;BME280;45224;50.904;6.038;2023-04-30T02:48:27;100441.03;;;8.14;94.26
59419;BME280;45224;50.904;6.038;2023-04-30T02:49:58;100439.28;;;8.13;94.33
59419;BME280;45224;50.904;6.038;2023-04-30T02:51:28;100435.84;;;8.13;94.62
59419;BME280;45224;50.904;6.038;2023-04-30T02:52:59;100436.72;;;8.15;94.22
59419;BME280;45224;50.904;6.038;2023-04-30T02:54:29;100432.81;;;7.91;96.18
59419;BME280;45224;50.904;6.038;2023-04-30T02:56:00;100442.25;;;7.91;96.55
59419;BME280;45224;50.904;6.038;2023-04-30T02:57:31;100427.31;;;7.74;98.22
59419;BME280;45224;50.904;6.038;2023-04-30T02:59:01;100426.38;;;7.71;98.11
59419;BME280;45224;50.904;6.038;2023-04-30T03:00:32;100429.81;;;7.71;98.74
59419;BME280;45224;50.904;6.038;2023-04-30T03:02:02;100425.56;;;7.73;97.95
59419;BME280;45224;50.904;6.038;2023-04-30T03:03:34;100431.78;;;7.83;96.79
59419;BME280;45224;50.904;6.038;2023-04-30T03:05:05;100417.34;;;7.90;95.73
59419;BME280;45224;50.904;6.038;2023-04-30T03:06:35;100415.66;;;7.92;95.46
59419;BME280;45224;50.904;6.038;2023-04-30T03:08:06;100422.53;;;7.93;95.12
59419;BME280;45224;50.904;6.038;2023-04-30T03:09:36;100424.34;;;7.97;94.76
59419;BME280;45224;50.904;6.038;2023-04-30T03:11:06;100426.84;;;7.94;94.64
59419;BME280;45224;50.904;6.038;2023-04-30T03:12:37;100422.50;;;7.90;95.00
59419;BME280;45224;50.904;6.038;2023-04-30T03:14:07;100423.28;;;7.87;95.68
59419;BME280;45224;50.904;6.038;2023-04-30T03:15:38;100418.16;;;7.87;95.46
59419;BME280;45224;50.904;6.038;2023-04-30T03:17:08;100420.69;;;7.85;95.42
59419;BME280;45224;50.904;6.038;2023-04-30T03:18:39;100424.06;;;7.83;95.81
59419;BME280;45224;50.904;6.038;2023-04-30T03:20:10;100420.63;;;7.82;95.75
59419;BME280;45224;50.904;6.038;2023-04-30T03:21:40;100417.16;;;7.80;95.72
59419;BME280;45224;50.904;6.038;2023-04-30T03:23:11;100424.13;;;7.86;95.33
59419;BME280;45224;50.904;6.038;2023-04-30T03:24:41;100419.84;;;7.86;94.84
59419;BME280;45224;50.904;6.038;2023-04-30T03:26:12;100420.75;;;7.89;94.08
59419;BME280;45224;50.904;6.038;2023-04-30T03:27:43;100425.06;;;7.91;94.41
59419;BME280;45224;50.904;6.038;2023-04-30T03:29:13;100422.50;;;7.90;93.92
59419;BME280;45224;50.904;6.038;2023-04-30T03:30:44;100424.31;;;7.95;93.29
59419;BME280;45224;50.904;6.038;2023-04-30T03:32:14;100420.81;;;7.92;93.55
59419;BME280;45224;50.904;6.038;2023-04-30T03:33:45;100426.81;;;7.92;93.56
59419;BME280;45224;50.904;6.038;2023-04-30T03:35:15;100421.69;;;7.92;92.96
59419;BME280;45224;50.904;6.038;2023-04-30T03:36:46;100427.69;;;7.93;92.94
59419;BME280;45224;50.904;6.038;2023-04-30T03:38:17;100425.97;;;7.92;92.32
59419;BME280;45224;50.904;6.038;2023-04-30T03:39:47;100423.38;;;7.92;92.37
59419;BME280;45224;50.904;6.038;2023-04-30T03:41:18;100425.91;;;7.89;92.16
59419;BME280;45224;50.904;6.038;2023-04-30T03:42:48;100437.03;;;7.88;92.57
59419;BME280;45224;50.904;6.038;2023-04-30T03:44:19;100427.59;;;7.86;92.19
59419;BME280;45224;50.904;6.038;2023-04-30T03:45:50;100426.69;;;7.86;92.30
59419;BME280;45224;50.904;6.038;2023-04-30T03:47:21;100429.16;;;7.81;92.25
59419;BME280;45224;50.904;6.038;2023-04-30T03:48:52;100425.84;;;7.85;92.17
59419;BME280;45224;50.904;6.038;2023-04-30T03:50:22;100425.69;;;7.79;91.82
59419;BME280;45224;50.904;6.038;2023-04-30T03:51:53;100422.28;;;7.80;92.20
59419;BME280;45224;50.904;6.038;2023-04-30T03:53:23;100434.25;;;7.78;91.83
59419;BME280;45224;50.904;6.038;2023-04-30T03:54:56;100441.13;;;7.79;91.81
59419;BME280;45224;50.904;6.038;2023-04-30T03:56:26;100442.84;;;7.79;91.63
59419;BME280;45224;50.904;6.038;2023-04-30T03:57:57;100442.75;;;7.74;91.54
59419;BME280;45224;50.904;6.038;2023-04-30T03:59:27;100440.84;;;7.67;92.58
59419;BME280;45224;50.904;6.038;2023-04-30T04:00:58;100446.94;;;7.69;92.82
59419;BME280;45224;50.904;6.038;2023-04-30T04:02:30;100446.97;;;7.71;92.56
59419;BME280;45224;50.904;6.038;2023-04-30T04:04:01;100442.69;;;7.71;92.16
59419;BME280;45224;50.904;6.038;2023-04-30T04:05:31;100440.94;;;7.70;91.91
59419;BME280;45224;50.904;6.038;2023-04-30T04:07:02;100440.03;;;7.68;91.63
59419;BME280;45224;50.904;6.038;2023-04-30T04:08:33;100439.00;;;7.60;92.28
59419;BME280;45224;50.904;6.038;2023-04-30T04:10:03;100437.13;;;7.53;93.57
59419;BME280;45224;50.904;6.038;2023-04-30T04:11:35;100447.44;;;7.53;93.87
59419;BME280;45224;50.904;6.038;2023-04-30T04:13:06;100446.50;;;7.50;94.32
59419;BME280;45224;50.904;6.038;2023-04-30T04:14:37;100437.94;;;7.50;94.02
59419;BME280;45224;50.904;6.038;2023-04-30T04:16:08;100450.09;;;7.57;94.03
59419;BME280;45224;50.904;6.038;2023-04-30T04:17:39;100438.94;;;7.57;93.64
59419;BME280;45224;50.904;6.038;2023-04-30T04:19:09;100444.00;;;7.54;94.51
59419;BME280;45224;50.904;6.038;2023-04-30T04:20:42;100446.34;;;7.44;95.74
59419;BME280;45224;50.904;6.038;2023-04-30T04:22:12;100436.84;;;7.40;95.84
59419;BME280;45224;50.904;6.038;2023-04-30T04:23:43;100450.53;;;7.39;96.06
59419;BME280;45224;50.904;6.038;2023-04-30T04:25:13;100439.41;;;7.40;95.66
59419;BME280;45224;50.904;6.038;2023-04-30T04:26:46;100440.25;;;7.39;95.73
59419;BME280;45224;50.904;6.038;2023-04-30T04:28:17;100440.28;;;7.41;95.85
59419;BME280;45224;50.904;6.038;2023-04-30T04:29:48;100440.25;;;7.39;95.74
59419;BME280;45224;50.904;6.038;2023-04-30T04:31:19;100446.28;;;7.40;95.74
59419;BME280;45224;50.904;6.038;2023-04-30T04:32:49;100449.66;;;7.39;95.89
59419;BME280;45224;50.904;6.038;2023-04-30T04:34:23;100447.06;;;7.37;95.84
59419;BME280;45224;50.904;6.038;2023-04-30T04:35:53;100452.28;;;7.40;95.80
59419;BME280;45224;50.904;6.038;2023-04-30T04:37:24;100444.69;;;7.45;95.40
59419;BME280;45224;50.904;6.038;2023-04-30T04:38:55;100447.34;;;7.49;94.99
59419;BME280;45224;50.904;6.038;2023-04-30T04:40:32;100450.91;;;7.55;94.58
59419;BME280;45224;50.904;6.038;2023-04-30T04:42:04;100450.97;;;7.58;94.54
59419;BME280;45224;50.904;6.038;2023-04-30T04:43:35;100453.53;;;7.58;94.68
59419;BME280;45224;50.904;6.038;2023-04-30T04:45:07;100446.75;;;7.61;94.13
59419;BME280;45224;50.904;6.038;2023-04-30T04:46:38;100445.84;;;7.59;94.34
59419;BME280;45224;50.904;6.038;2023-04-30T04:48:11;100449.28;;;7.60;94.56
59419;BME280;45224;50.904;6.038;2023-04-30T04:49:42;100449.34;;;7.61;94.51
59419;BME280;45224;50.904;6.038;2023-04-30T04:51:12;100453.69;;;7.64;94.53
59419;BME280;45224;50.904;6.038;2023-04-30T04:52:43;100456.94;;;7.57;95.41
59419;BME280;45224;50.904;6.038;2023-04-30T04:54:13;100462.66;;;7.43;96.79
59419;BME280;45224;50.904;6.038;2023-04-30T04:55:44;100460.75;;;7.36;98.04
59419;BME280;45224;50.904;6.038;2023-04-30T04:57:14;100467.66;;;7.37;97.80
59419;BME280;45224;50.904;6.038;2023-04-30T04:58:45;100464.31;;;7.41;97.26
59419;BME280;45224;50.904;6.038;2023-04-30T05:00:16;100463.50;;;7.44;97.31
59419;BME280;45224;50.904;6.038;2023-04-30T05:01:48;100475.66;;;7.49;96.83
59419;BME280;45224;50.904;6.038;2023-04-30T05:03:18;100473.00;;;7.46;97.62
59419;BME280;45224;50.904;6.038;2023-04-30T05:04:50;100471.22;;;7.44;98.40
59419;BME280;45224;50.904;6.038;2023-04-30T05:06:22;100480.72;;;7.46;98.57
59419;BME280;45224;50.904;6.038;2023-04-30T05:07:52;100478.00;;;7.40;98.89
59419;BME280;45224;50.904;6.038;2023-04-30T05:09:24;100474.06;;;7.20;100.00
59419;BME280;45224;50.904;6.038;2023-04-30T05:10:54;100468.19;;;7.24;100.00
59419;BME280;45224;50.904;6.038;2023-04-30T05:12:25;100477.63;;;7.25;100.00
59419;BME280;45224;50.904;6.038;2023-04-30T05:13:55;100475.06;;;7.25;100.00
59419;BME280;45224;50.904;6.038;2023-04-30T05:15:27;100477.53;;;7.22;100.00
59419;BME280;45224;50.904;6.038;2023-04-30T05:16:57;100468.41;;;6.98;100.00
59419;BME280;45224;50.904;6.038;2023-04-30T05:18:28;100475.97;;;6.92;100.00
59419;BME280;45224;50.904;6.038;2023-04-30T05:19:58;100475.38;;;6.69;100.00
59419;BME280;45224;50.904;6.038;2023-04-30T05:21:29;100480.81;;;6.81;100.00
59419;BME280;45224;50.904;6.038;2023-04-30T05:23:01;100478.94;;;7.07;100.00
59419;BME280;45224;50.904;6.038;2023-04-30T05:24:32;100478.94;;;7.07;100.00
59419;BME280;45224;50.904;6.038;2023-04-30T05:26:03;100478.78;;;7.01;100.00
59419;BME280;45224;50.904;6.038;2023-04-30T05:27:34;100485.25;;;6.87;100.00
59419;BME280;45224;50.904;6.038;2023-04-30T05:29:05;100473.47;;;6.95;100.00
59419;BME280;45224;50.904;6.038;2023-04-30T05:30:35;100479.78;;;7.08;100.00
59419;BME280;45224;50.904;6.038;2023-04-30T05:32:06;100470.38;;;7.08;100.00
59419;BME280;45224;50.904;6.038;2023-04-30T05:33:37;100475.81;;;7.21;100.00
59419;BME280;45224;50.904;6.038;2023-04-30T05:35:07;100477.09;;;7.38;100.00
59419;BME280;45224;50.904;6.038;2023-04-30T05:36:38;100479.13;;;7.52;100.00
59419;BME280;45224;50.904;6.038;2023-04-30T05:38:09;100475.91;;;7.62;100.00
59419;BME280;45224;50.904;6.038;2023-04-30T05:39:39;100468.38;;;7.70;100.00
59419;BME280;45224;50.904;6.038;2023-04-30T05:41:11;100471.88;;;7.73;100.00
59419;BME280;45224;50.904;6.038;2023-04-30T05:42:42;100462.78;;;7.88;100.00
59419;BME280;45224;50.904;6.038;2023-04-30T05:44:15;100467.44;;;8.05;100.00
59419;BME280;45224;50.904;6.038;2023-04-30T05:45:45;100466.94;;;8.22;98.93
59419;BME280;45224;50.904;6.038;2023-04-30T05:47:16;100470.63;;;8.36;98.44
59419;BME280;45224;50.904;6.038;2023-04-30T05:48:46;100475.06;;;8.42;97.29
59419;BME280;45224;50.904;6.038;2023-04-30T05:50:17;100471.91;;;8.55;96.89
59419;BME280;45224;50.904;6.038;2023-04-30T05:51:48;100468.59;;;8.61;96.06
59419;BME280;45224;50.904;6.038;2023-04-30T05:53:19;100468.81;;;8.75;95.80
59419;BME280;45224;50.904;6.038;2023-04-30T05:54:49;100468.03;;;8.77;95.62
59419;BME280;45224;50.904;6.038;2023-04-30T05:56:20;100469.84;;;8.83;95.17
59419;BME280;45224;50.904;6.038;2023-04-30T05:57:50;100471.88;;;9.00;94.91
59419;BME280;45224;50.904;6.038;2023-04-30T05:59:21;100470.28;;;9.08;93.93
59419;BME280;45224;50.904;6.038;2023-04-30T06:00:51;100470.44;;;9.19;93.53
59419;BME280;45224;50.904;6.038;2023-04-30T06:02:22;100472.31;;;9.27;92.40
59419;BME280;45224;50.904;6.038;2023-04-30T06:03:52;100479.28;;;9.33;91.24
59419;BME280;45224;50.904;6.038;2023-04-30T06:05:23;100473.34;;;9.39;91.64
59419;BME280;45224;50.904;6.038;2023-04-30T06:06:53;100483.84;;;9.48;91.20
59419;BME280;45224;50.904;6.038;2023-04-30T06:08:23;100464.91;;;9.49;91.44
59419;BME280;45224;50.904;6.038;2023-04-30T06:09:54;100467.59;;;9.55;91.06
59419;BME280;45224;50.904;6.038;2023-04-30T06:11:25;100473.63;;;9.57;90.60
59419;BME280;45224;50.904;6.038;2023-04-30T06:12:56;100480.66;;;9.66;89.78
59419;BME280;45224;50.904;6.038;2023-04-30T06:14:27;100479.13;;;9.79;89.59
59419;BME280;45224;50.904;6.038;2023-04-30T06:15:57;100486.09;;;9.86;89.97
59419;BME280;45224;50.904;6.038;2023-04-30T06:17:28;100482.78;;;9.96;88.71
59419;BME280;45224;50.904;6.038;2023-04-30T06:18:58;100482.94;;;10.07;88.28
59419;BME280;45224;50.904;6.038;2023-04-30T06:20:29;100474.41;;;10.13;87.95
59419;BME280;45224;50.904;6.038;2023-04-30T06:21:59;100477.03;;;10.16;87.37
59419;BME280;45224;50.904;6.038;2023-04-30T06:23:30;100476.22;;;10.20;86.55
59419;BME280;45224;50.904;6.038;2023-04-30T06:25:01;100476.25;;;10.23;87.18
59419;BME280;45224;50.904;6.038;2023-04-30T06:26:32;100477.88;;;10.15;87.97
59419;BME280;45224;50.904;6.038;2023-04-30T06:28:03;100478.03;;;10.27;88.03
59419;BME280;45224;50.904;6.038;2023-04-30T06:29:34;100479.94;;;10.40;87.58
59419;BME280;45224;50.904;6.038;2023-04-30T06:31:04;100484.41;;;10.54;86.77
59419;BME280;45224;50.904;6.038;2023-04-30T06:32:35;100487.84;;;10.56;85.86
59419;BME280;45224;50.904;6.038;2023-04-30T06:34:05;100487.06;;;10.60;85.88
59419;BME280;45224;50.904;6.038;2023-04-30T06:35:36;100486.22;;;10.61;86.29
59419;BME280;45224;50.904;6.038;2023-04-30T06:37:06;100479.38;;;10.68;86.04
59419;BME280;45224;50.904;6.038;2023-04-30T06:38:37;100481.31;;;10.87;84.90
59419;BME280;45224;50.904;6.038;2023-04-30T06:40:07;100481.38;;;10.93;84.92
59419;BME280;45224;50.904;6.038;2023-04-30T06:41:38;100478.81;;;10.95;84.64
59419;BME280;45224;50.904;6.038;2023-04-30T06:43:13;100480.50;;;10.96;84.93
59419;BME280;45224;50.904;6.038;2023-04-30T06:44:43;100466.09;;;10.34;85.55
59419;BME280;45224;50.904;6.038;2023-04-30T06:46:14;100477.56;;;10.59;85.19
59419;BME280;45224;50.904;6.038;2023-04-30T06:47:45;100478.31;;;10.49;85.71
59419;BME280;45224;50.904;6.038;2023-04-30T06:49:16;100477.75;;;10.77;85.98
59419;BME280;45224;50.904;6.038;2023-04-30T06:50:46;100482.19;;;10.91;84.48
59419;BME280;45224;50.904;6.038;2023-04-30T06:52:17;100470.28;;;11.08;83.05
59419;BME280;45224;50.904;6.038;2023-04-30T06:53:47;100479.06;;;11.26;81.10
59419;BME280;45224;50.904;6.038;2023-04-30T06:55:18;100478.38;;;11.48;81.59
59419;BME280;45224;50.904;6.038;2023-04-30T06:56:48;100481.94;;;11.63;80.72
59419;BME280;45224;50.904;6.038;2023-04-30T06:58:19;100484.59;;;11.77;80.71
59419;BME280;45224;50.904;6.038;2023-04-30T06:59:49;100482.00;;;11.75;78.59
59419;BME280;45224;50.904;6.038;2023-04-30T07:01:20;100485.47;;;11.76;78.57
59419;BME280;45224;50.904;6.038;2023-04-30T07:02:50;100482.09;;;11.91;77.59
59419;BME280;45224;50.904;6.038;2023-04-30T07:04:21;100470.94;;;11.99;77.28
59419;BME280;45224;50.904;6.038;2023-04-30T07:05:53;100475.25;;;11.96;77.62
59419;BME280;45224;50.904;6.038;2023-04-30T07:07:24;100476.22;;;12.18;76.94
59419;BME280;45224;50.904;6.038;2023-04-30T07:08:54;100481.47;;;12.38;76.23
59419;BME280;45224;50.904;6.038;2023-04-30T07:10:26;100479.81;;;12.58;74.67
59419;BME280;45224;50.904;6.038;2023-04-30T07:11:57;100479.84;;;12.77;74.71
59419;BME280;45224;50.904;6.038;2023-04-30T07:13:27;100485.03;;;12.71;74.55
59419;BME280;45224;50.904;6.038;2023-04-30T07:14:58;100482.47;;;12.89;75.32
59419;BME280;45224;50.904;6.038;2023-04-30T07:16:29;100485.09;;;13.11;75.11
59419;BME280;45224;50.904;6.038;2023-04-30T07:18:01;100482.50;;;13.26;74.06
59419;BME280;45224;50.904;6.038;2023-04-30T07:19:33;100480.78;;;13.07;74.09
59419;BME280;45224;50.904;6.038;2023-04-30T07:21:03;100491.19;;;13.42;72.55
59419;BME280;45224;50.904;6.038;2023-04-30T07:22:34;100488.56;;;13.59;73.14
59419;BME280;45224;50.904;6.038;2023-04-30T07:24:04;100481.63;;;13.69;71.62
59419;BME280;45224;50.904;6.038;2023-04-30T07:25:35;100488.50;;;13.87;71.33
59419;BME280;45224;50.904;6.038;2023-04-30T07:27:05;100483.28;;;13.99;70.76
59419;BME280;45224;50.904;6.038;2023-04-30T07:28:36;100476.34;;;14.04;70.84
59419;BME280;45224;50.904;6.038;2023-04-30T07:30:07;100479.81;;;14.06;70.40
59419;BME280;45224;50.904;6.038;2023-04-30T07:31:41;100475.47;;;14.09;71.18
59419;BME280;45224;50.904;6.038;2023-04-30T07:33:11;100480.56;;;14.30;71.91
59419;BME280;45224;50.904;6.038;2023-04-30T07:34:42;100474.44;;;14.47;70.50
59419;BME280;45224;50.904;6.038;2023-04-30T07:36:13;100484.75;;;14.70;69.46
59419;BME280;45224;50.904;6.038;2023-04-30T07:37:43;100479.44;;;14.87;69.48
59419;BME280;45224;50.904;6.038;2023-04-30T07:39:14;100481.00;;;15.09;68.26
59419;BME280;45224;50.904;6.038;2023-04-30T07:40:44;100483.53;;;15.23;68.13
59419;BME280;45224;50.904;6.038;2023-04-30T07:42:15;100481.91;;;15.10;66.38
59419;BME280;45224;50.904;6.038;2023-04-30T07:43:45;100472.06;;;15.43;66.43
59419;BME280;45224;50.904;6.038;2023-04-30T07:45:16;100478.91;;;15.51;66.20
59419;BME280;45224;50.904;6.038;2023-04-30T07:46:47;100475.22;;;15.77;64.85
59419;BME280;45224;50.904;6.038;2023-04-30T07:48:17;100471.72;;;15.81;65.54
59419;BME280;45224;50.904;6.038;2023-04-30T07:49:48;100466.31;;;15.97;64.73
59419;BME280;45224;50.904;6.038;2023-04-30T07:51:18;100470.50;;;16.12;64.63
59419;BME280;45224;50.904;6.038;2023-04-30T07:52:49;100472.03;;;16.30;63.96
59419;BME280;45224;50.904;6.038;2023-04-30T07:54:20;100472.88;;;16.30;61.74
59419;BME280;45224;50.904;6.038;2023-04-30T07:55:50;100472.22;;;16.13;61.87
59419;BME280;45224;50.904;6.038;2023-04-30T07:57:21;100477.09;;;16.39;62.96
59419;BME280;45224;50.904;6.038;2023-04-30T07:58:51;100476.13;;;16.49;62.28
59419;BME280;45224;50.904;6.038;2023-04-30T08:00:21;100473.59;;;16.41;61.54
59419;BME280;45224;50.904;6.038;2023-04-30T08:01:52;100474.16;;;16.67;61.13
59419;BME280;45224;50.904;6.038;2023-04-30T08:03:23;100471.63;;;16.59;61.88
59419;BME280;45224;50.904;6.038;2023-04-30T08:04:53;100472.13;;;16.87;60.28
59419;BME280;45224;50.904;6.038;2023-04-30T08:06:24;100476.97;;;17.13;61.81
59419;BME280;45224;50.904;6.038;2023-04-30T08:07:56;100473.41;;;17.16;60.15
59419;BME280;45224;50.904;6.038;2023-04-30T08:09:27;100473.31;;;17.22;57.38
59419;BME280;45224;50.904;6.038;2023-04-30T08:10:57;100479.41;;;17.21;56.48
59419;BME280;45224;50.904;6.038;2023-04-30T08:12:28;100479.69;;;17.57;58.15
59419;BME280;45224;50.904;6.038;2023-04-30T08:13:58;100478.44;;;17.78;56.85
59419;BME280;45224;50.904;6.038;2023-04-30T08:15:29;100485.94;;;17.98;56.87
59419;BME280;45224;50.904;6.038;2023-04-30T08:16:59;100482.16;;;17.65;54.99
59419;BME280;45224;50.904;6.038;2023-04-30T08:18:31;100487.53;;;18.07;56.25